Time;durP1;ratioP1;P1;durP2;ratioP2;P2;SDS_P1;SDS_P2;PMS_P1;PMS_P2;Temp;Humidity;BMP_temperature;BMP_pressure;BME280_temperature;BME280_humidity;BME280_pressure;Samples;Min_cycle;Max_cycle;Signal;HPM_P1;HPM_P2
2024/01/31 00:00:57;;;;;;;46.60;22.55;;;;;;;8.27;100.00;103406.72;5288488;27;20492;-73
2024/01/31 00:03:28;;;;;;;48.80;21.73;;;;;;;8.28;100.00;103411.13;5288458;27;20058;-73
2024/01/31 00:05:58;;;;;;;47.72;23.38;;;;;;;8.29;100.00;103404.84;5290732;27;20444;-73
2024/01/31 00:08:31;;;;;;;50.67;24.92;;;;;;;8.19;100.00;103409.84;5287530;27;20106;-73
2024/01/31 00:11:02;;;;;;;50.95;24.92;;;;;;;8.19;100.00;103409.00;5282703;28;20032;-73
2024/01/31 00:13:32;;;;;;;47.97;23.80;;;;;;;8.27;100.00;103406.72;5289255;27;20031;-73
2024/01/31 00:16:04;;;;;;;47.38;23.98;;;;;;;8.25;100.00;103401.47;5288118;28;20066;-73
2024/01/31 00:18:34;;;;;;;55.15;25.77;;;;;;;8.27;100.00;103407.59;5289351;27;20068;-73
2024/01/31 00:21:05;;;;;;;47.35;24.33;;;;;;;8.27;100.00;103404.06;5288631;27;20008;-73
2024/01/31 00:23:35;;;;;;;51.40;25.52;;;;;;;8.23;100.00;103394.47;5288543;27;20022;-73
2024/01/31 00:26:06;;;;;;;50.63;24.52;;;;;;;8.27;100.00;103402.25;5288839;27;20020;-73
2024/01/31 00:28:36;;;;;;;48.40;23.25;;;;;;;8.32;100.00;103401.97;5289389;27;20019;-73
2024/01/31 00:31:10;;;;;;;52.25;25.23;;;;;;;8.31;100.00;103403.78;5287468;27;20110;-73
2024/01/31 00:33:40;;;;;;;55.53;25.42;;;;;;;8.29;100.00;103410.19;5287980;27;20027;-73
2024/01/31 00:36:11;;;;;;;52.72;24.40;;;;;;;8.26;100.00;103411.22;5289198;27;20023;-73
2024/01/31 00:38:41;;;;;;;55.15;25.65;;;;;;;8.27;100.00;103406.72;5288709;27;20023;-73
2024/01/31 00:41:12;;;;;;;57.13;25.73;;;;;;;8.27;100.00;103417.44;5288126;27;20016;-73
2024/01/31 00:43:42;;;;;;;53.63;25.88;;;;;;;8.24;100.00;103418.47;5288978;27;20098;-73
2024/01/31 00:46:13;;;;;;;56.22;25.63;;;;;;;8.19;100.00;103420.56;5281994;27;20102;-73
2024/01/31 00:48:43;;;;;;;59.60;25.60;;;;;;;8.20;100.00;103429.44;5286750;27;20054;-73
2024/01/31 00:51:14;;;;;;;53.45;24.83;;;;;;;8.19;100.00;103425.03;5287315;28;20039;-73
2024/01/31 00:53:44;;;;;;;61.85;26.63;;;;;;;8.21;100.00;103434.69;5287501;27;20027;-73
2024/01/31 00:56:15;;;;;;;60.03;26.80;;;;;;;8.20;100.00;103432.97;5288336;27;20034;-73
2024/01/31 00:58:45;;;;;;;63.50;27.80;;;;;;;8.18;100.00;103425.97;5287450;27;20035;-73
2024/01/31 01:01:16;;;;;;;61.03;28.08;;;;;;;8.18;100.00;103424.19;5286620;27;20019;-73
2024/01/31 01:03:46;;;;;;;64.72;28.67;;;;;;;8.20;100.00;103432.13;5288300;27;20026;-73
2024/01/31 01:06:17;;;;;;;61.28;28.42;;;;;;;8.21;100.00;103440.03;5287970;27;20088;-73
2024/01/31 01:08:47;;;;;;;61.03;28.27;;;;;;;8.21;100.00;103439.19;5277386;27;20132;-73
2024/01/31 01:11:18;;;;;;;64.50;28.80;;;;;;;8.29;100.00;103443.16;5277435;27;20024;-73
2024/01/31 01:13:49;;;;;;;63.35;28.40;;;;;;;8.32;100.00;103442.94;5287803;27;20045;-72
2024/01/31 01:16:19;;;;;;;59.13;25.85;;;;;;;8.24;100.00;103449.72;5286910;27;20569;-73
2024/01/31 01:18:50;;;;;;;60.72;27.35;;;;;;;8.23;100.00;103446.19;5286551;27;20065;-73
2024/01/31 01:21:20;;;;;;;70.45;29.42;;;;;;;8.22;100.00;103446.25;5287456;27;20027;-73
2024/01/31 01:23:51;;;;;;;61.72;27.35;;;;;;;8.19;100.00;103452.66;5286988;27;20085;-73
2024/01/31 01:26:21;;;;;;;64.93;30.05;;;;;;;8.12;100.00;103453.06;5287358;27;20480;-73
2024/01/31 01:28:52;;;;;;;68.80;29.02;;;;;;;8.12;100.00;103451.25;5286190;27;20035;-73
2024/01/31 01:31:23;;;;;;;61.47;28.75;;;;;;;8.10;100.00;103452.31;5286234;27;20027;-73
2024/01/31 01:33:53;;;;;;;68.57;28.38;;;;;;;8.09;100.00;103445.25;5286882;28;20051;-73
2024/01/31 01:36:24;;;;;;;60.70;27.73;;;;;;;8.15;100.00;103444.88;5286206;28;20028;-73
2024/01/31 01:38:54;;;;;;;60.88;25.60;;;;;;;8.12;100.00;103442.38;5285894;28;20480;-73
2024/01/31 01:41:24;;;;;;;61.85;28.00;;;;;;;8.08;100.00;103439.00;5286350;27;20049;-73
2024/01/31 01:43:55;;;;;;;60.63;26.83;;;;;;;8.09;100.00;103445.25;5285996;28;20423;-73
2024/01/31 01:46:26;;;;;;;63.72;27.45;;;;;;;8.05;100.00;103444.53;5286037;27;20028;-73
2024/01/31 01:48:56;;;;;;;61.47;27.10;;;;;;;8.01;100.00;103449.19;5285793;28;20027;-73
2024/01/31 01:51:27;;;;;;;60.47;26.38;;;;;;;7.99;100.00;103447.56;5286132;27;20084;-73
2024/01/31 01:53:58;;;;;;;60.10;27.58;;;;;;;7.96;100.00;103445.91;5286684;28;20031;-73
2024/01/31 01:56:30;;;;;;;61.58;26.45;;;;;;;7.96;100.00;103440.56;5285905;27;20061;-73
2024/01/31 01:59:01;;;;;;;63.47;26.63;;;;;;;7.94;100.00;103441.63;5285593;27;20031;-73
2024/01/31 02:01:32;;;;;;;57.28;26.65;;;;;;;7.93;100.00;103450.56;5286183;28;20267;-73
2024/01/31 02:04:05;;;;;;;61.35;26.38;;;;;;;7.91;100.00;103445.31;5280444;27;20377;-73
2024/01/31 02:06:35;;;;;;;69.85;28.25;;;;;;;7.89;100.00;103446.34;5285584;28;20084;-73
2024/01/31 02:09:06;;;;;;;69.55;29.00;;;;;;;7.85;100.00;103445.66;5285590;28;20031;-73
2024/01/31 02:11:54;;;;;;;64.35;29.05;;;;;;;7.84;100.00;103451.97;5286195;28;20028;-73
2024/01/31 02:14:25;;;;;;;61.85;24.95;;;;;;;7.83;100.00;103447.56;5285677;28;20403;-73
2024/01/31 02:16:57;;;;;;;68.97;29.00;;;;;;;7.81;100.00;103441.41;5284845;28;20023;-73
2024/01/31 02:19:27;;;;;;;57.95;25.92;;;;;;;7.86;100.00;103438.50;5284792;27;20059;-73
2024/01/31 02:22:17;;;;;;;65.10;28.77;;;;;;;7.87;100.00;103430.38;5285644;28;20027;-73
2024/01/31 02:24:49;;;;;;;66.72;27.92;;;;;;;7.83;100.00;103428.84;5285403;28;20055;-73
2024/01/31 02:27:20;;;;;;;59.78;25.75;;;;;;;7.75;100.00;103431.06;5298397;27;20023;-72
2024/01/31 02:30:07;;;;;;;63.20;26.27;;;;;;;7.71;100.00;103429.53;5297309;27;20038;-73
2024/01/31 02:32:56;;;;;;;58.70;25.42;;;;;;;7.73;100.00;103431.19;5286562;27;20028;-73
2024/01/31 02:35:32;;;;;;;67.80;26.75;;;;;;;7.70;100.00;103426.00;5298542;27;20035;-73
2024/01/31 02:38:03;;;;;;;70.80;29.15;;;;;;;7.73;100.00;103430.28;5296876;27;20378;-73
2024/01/31 02:40:33;;;;;;;78.28;30.92;;;;;;;7.76;100.00;103432.78;5294667;27;20031;-73
2024/01/31 02:43:04;;;;;;;83.38;29.50;;;;;;;7.76;100.00;103439.00;5301628;27;20496;-73
2024/01/31 02:45:35;;;;;;;71.57;29.20;;;;;;;7.78;100.00;103433.56;5294193;27;20043;-73
2024/01/31 02:48:08;;;;;;;76.78;28.95;;;;;;;7.76;100.00;103433.66;5295328;27;20042;-73
2024/01/31 02:50:38;;;;;;;77.70;30.98;;;;;;;7.77;100.00;103439.84;5296452;27;20031;-73
2024/01/31 02:53:09;;;;;;;70.10;29.15;;;;;;;7.78;100.00;103433.56;5289881;27;20384;-73
2024/01/31 02:55:40;;;;;;;69.00;27.60;;;;;;;7.75;100.00;103420.38;5289075;27;23213;-73
2024/01/31 02:58:11;;;;;;;69.32;26.10;;;;;;;7.70;100.00;103423.31;5297064;27;20047;-73
2024/01/31 03:00:42;;;;;;;58.47;25.17;;;;;;;7.65;100.00;103424.53;5293160;27;20027;-73
2024/01/31 03:03:13;;;;;;;65.45;27.45;;;;;;;7.58;100.00;103421.34;5286190;27;20024;-73
2024/01/31 03:05:43;;;;;;;72.28;27.75;;;;;;;7.55;100.00;103417.97;5294877;27;20023;-73
2024/01/31 03:08:14;;;;;;;76.20;31.17;;;;;;;7.53;100.00;103418.06;5295628;27;20373;-73
2024/01/31 03:10:45;;;;;;;78.28;27.98;;;;;;;7.51;100.00;103422.59;5293988;28;20015;-73
2024/01/31 03:13:16;;;;;;;68.07;28.83;;;;;;;7.49;100.00;103425.34;5287955;27;20056;-73
2024/01/31 03:15:46;;;;;;;62.42;26.73;;;;;;;7.44;100.00;103416.72;5294342;28;20027;-73
2024/01/31 03:18:17;;;;;;;62.10;25.95;;;;;;;7.42;100.00;103421.28;5299714;28;20034;-74
2024/01/31 03:20:50;;;;;;;70.03;27.58;;;;;;;7.41;100.00;103419.56;5292744;28;20139;-73
2024/01/31 03:23:21;;;;;;;70.65;28.55;;;;;;;7.41;100.00;103413.34;5301501;27;20665;-73
2024/01/31 03:25:51;;;;;;;74.22;28.80;;;;;;;7.42;100.00;103421.28;5296372;28;20024;-73
2024/01/31 03:28:23;;;;;;;73.07;29.70;;;;;;;7.40;100.00;103414.31;5290227;28;20027;-73
2024/01/31 03:30:54;;;;;;;97.88;30.52;;;;;;;7.38;100.00;103406.38;5283829;28;20039;-73
2024/01/31 03:33:25;;;;;;;65.90;26.73;;;;;;;7.37;100.00;103399.28;5290378;28;20019;-73
2024/01/31 03:35:57;;;;;;;78.75;29.38;;;;;;;7.37;100.00;103396.63;5289515;28;20027;-73
2024/01/31 03:38:28;;;;;;;72.03;29.10;;;;;;;7.36;100.00;103397.56;5289447;28;20042;-73
2024/01/31 03:40:58;;;;;;;76.70;29.10;;;;;;;7.37;100.00;103393.09;5289574;28;20023;-73
2024/01/31 03:43:29;;;;;;;77.00;29.00;;;;;;;7.36;100.00;103392.25;5284882;27;20031;-73
2024/01/31 03:46:00;;;;;;;68.78;28.38;;;;;;;7.38;100.00;103390.38;5289965;27;20488;-73
2024/01/31 03:48:30;;;;;;;79.65;30.85;;;;;;;7.37;100.00;103393.09;5296903;27;20106;-73
2024/01/31 03:51:01;;;;;;;85.88;30.67;;;;;;;7.38;100.00;103387.69;5301262;27;20038;-73
2024/01/31 03:53:32;;;;;;;86.32;30.42;;;;;;;7.40;100.00;103383.13;5287131;27;20020;-73
2024/01/31 03:56:03;;;;;;;86.93;32.72;;;;;;;7.41;100.00;103379.50;5291951;28;20329;-73
2024/01/31 03:58:33;;;;;;;85.05;32.22;;;;;;;7.40;100.00;103377.78;5289364;27;20027;-73
2024/01/31 04:01:04;;;;;;;72.10;27.73;;;;;;;7.41;100.00;103382.16;5288973;27;20412;-73
2024/01/31 04:03:36;;;;;;;79.82;31.23;;;;;;;7.37;100.00;103382.41;5290192;28;20024;-73
2024/01/31 04:06:07;;;;;;;75.32;29.25;;;;;;;7.40;100.00;103382.25;5288741;27;20024;-73
2024/01/31 04:08:38;;;;;;;70.38;30.33;;;;;;;7.40;100.00;103383.13;5294202;27;20028;-73
2024/01/31 04:11:08;;;;;;;76.38;30.70;;;;;;;7.42;100.00;103386.56;5304502;27;20031;-72
2024/01/31 04:13:43;;;;;;;79.38;32.25;;;;;;;7.46;100.00;103388.13;5292941;27;20122;-73
2024/01/31 04:16:15;;;;;;;75.67;30.40;;;;;;;7.46;100.00;103381.91;5294344;27;20477;-73
2024/01/31 04:18:45;;;;;;;94.40;32.92;;;;;;;7.45;100.00;103391.75;5295930;27;20793;-73
2024/01/31 04:21:24;;;;;;;94.68;34.17;;;;;;;7.45;100.00;103391.75;5303397;27;20027;-73
2024/01/31 04:23:54;;;;;;;91.15;35.05;;;;;;;7.42;100.00;103385.69;5299782;27;20023;-73
2024/01/31 04:26:25;;;;;;;87.53;31.58;;;;;;;7.44;100.00;103402.53;5293998;27;20038;-73
2024/01/31 04:28:55;;;;;;;91.35;33.45;;;;;;;7.46;100.00;103403.28;5291529;27;20227;-73
2024/01/31 04:31:26;;;;;;;87.95;32.15;;;;;;;7.49;100.00;103404.00;5294583;27;20023;-72
2024/01/31 04:33:56;;;;;;;85.80;31.38;;;;;;;7.49;100.00;103403.13;5287795;28;20102;-73
2024/01/31 04:36:27;;;;;;;100.63;34.42;;;;;;;7.48;100.00;103401.38;5292105;27;20168;-73
2024/01/31 04:39:00;;;;;;;88.25;34.63;;;;;;;7.50;100.00;103405.72;5297234;27;20031;-73
2024/01/31 04:41:30;;;;;;;90.47;31.35;;;;;;;7.52;100.00;103401.13;5294064;27;20019;-73
2024/01/31 04:44:01;;;;;;;86.47;31.65;;;;;;;7.48;100.00;103396.94;5297586;27;20388;-73
2024/01/31 04:46:31;;;;;;;78.85;30.90;;;;;;;7.45;100.00;103394.41;5294352;27;20084;-73
2024/01/31 04:49:01;;;;;;;71.30;29.75;;;;;;;7.44;100.00;103390.03;5302981;27;20015;-73
2024/01/31 04:51:32;;;;;;;73.47;29.88;;;;;;;7.42;100.00;103391.03;5294203;27;20049;-73
2024/01/31 04:54:03;;;;;;;79.90;30.67;;;;;;;7.41;100.00;103389.31;5297119;27;20102;-73
2024/01/31 04:56:35;;;;;;;81.50;28.67;;;;;;;7.37;100.00;103391.28;5289463;27;20027;-73
2024/01/31 04:59:06;;;;;;;87.90;30.95;;;;;;;7.35;100.00;103390.53;5288225;27;20023;-73
2024/01/31 05:01:36;;;;;;;102.57;32.35;;;;;;;7.35;100.00;103385.19;5293871;27;20012;-73
2024/01/31 05:04:06;;;;;;;105.95;32.85;;;;;;;7.36;100.00;103392.25;5297242;27;20030;-73
2024/01/31 05:06:37;;;;;;;82.82;28.88;;;;;;;7.41;100.00;103392.84;5285299;28;20039;-72
2024/01/31 05:09:08;;;;;;;89.60;31.55;;;;;;;7.44;100.00;103389.16;5297559;27;20449;-73
2024/01/31 05:11:39;;;;;;;84.80;29.33;;;;;;;7.46;100.00;103389.94;5290518;27;20024;-72
2024/01/31 05:14:10;;;;;;;93.13;30.23;;;;;;;7.46;100.00;103393.47;5292630;27;20431;-72
2024/01/31 05:16:42;;;;;;;79.20;29.35;;;;;;;7.47;100.00;103389.84;5294029;27;20028;-73
2024/01/31 05:19:13;;;;;;;72.63;27.98;;;;;;;7.42;100.00;103386.56;5294371;27;20030;-73
2024/01/31 05:21:48;;;;;;;79.70;27.83;;;;;;;7.37;100.00;103377.94;5286411;28;20024;-73
2024/01/31 05:24:19;;;;;;;;;;;;;;;7.28;100.00;103367.78;5292993;27;20019;-73
2024/01/31 05:26:50;;;;;;;69.13;26.13;;;;;;;7.22;100.00;103368.94;5289449;27;19922;-73
2024/01/31 05:29:21;;;;;;;74.55;27.00;;;;;;;7.24;100.00;103380.41;5287987;27;20031;-73
2024/01/31 05:31:51;;;;;;;80.07;27.83;;;;;;;7.26;100.00;103372.31;5297363;27;20069;-73
2024/01/31 05:34:22;;;;;;;95.43;31.65;;;;;;;7.26;100.00;103370.50;5292153;27;20083;-73
2024/01/31 05:36:53;;;;;;;83.70;26.75;;;;;;;7.30;100.00;103373.88;5291712;27;20024;-73
2024/01/31 05:39:23;;;;;;;83.18;27.27;;;;;;;7.33;100.00;103368.38;5295345;27;20604;-73
2024/01/31 05:41:54;;;;;;;80.80;27.38;;;;;;;7.34;100.00;103366.56;5284764;28;20016;-73
2024/01/31 05:44:24;;;;;;;75.07;27.75;;;;;;;7.34;100.00;103378.13;5290849;27;20031;-73
2024/01/31 05:46:55;;;;;;;85.72;26.20;;;;;;;7.35;100.00;103371.81;5296913;27;20492;-73
2024/01/31 05:49:25;;;;;;;90.00;28.05;;;;;;;7.39;100.00;103372.53;5290819;27;20020;-72
2024/01/31 05:51:56;;;;;;;88.05;26.85;;;;;;;7.38;100.00;103376.13;5291271;27;20023;-73
2024/01/31 05:54:26;;;;;;;83.55;27.77;;;;;;;7.38;100.00;103368.09;5291518;27;20029;-73
2024/01/31 05:56:57;;;;;;;74.78;27.15;;;;;;;7.35;100.00;103374.50;5291091;27;20024;-72
2024/01/31 05:59:27;;;;;;;86.40;26.77;;;;;;;7.31;100.00;103367.59;5295744;27;21485;-73
2024/01/31 06:01:59;;;;;;;74.15;26.20;;;;;;;7.29;100.00;103369.50;5284024;27;20019;-72
2024/01/31 06:04:29;;;;;;;81.82;25.05;;;;;;;7.31;100.00;103359.59;5291186;27;20059;-73
2024/01/31 06:07:00;;;;;;;77.82;25.52;;;;;;;7.32;100.00;103363.97;5285497;28;20157;-72
2024/01/31 06:09:31;;;;;;;76.75;26.00;;;;;;;7.27;100.00;103372.22;5283430;28;20035;-72
2024/01/31 06:12:01;;;;;;;86.05;26.23;;;;;;;7.24;100.00;103372.41;5290080;27;20034;-73
2024/01/31 06:14:32;;;;;;;82.80;25.35;;;;;;;7.24;100.00;103367.06;5281374;27;20033;-72
2024/01/31 06:17:03;;;;;;;71.95;25.90;;;;;;;7.27;100.00;103376.72;5289090;27;20024;-73
2024/01/31 06:19:34;;;;;;;74.65;26.00;;;;;;;7.35;100.00;103384.31;5289403;27;20024;-73
2024/01/31 06:22:04;;;;;;;79.10;25.65;;;;;;;7.34;100.00;103382.59;5289150;27;20380;-72
2024/01/31 06:24:36;;;;;;;85.28;26.63;;;;;;;7.35;100.00;103387.00;5291264;27;20388;-72
2024/01/31 06:27:06;;;;;;;83.13;26.17;;;;;;;7.34;100.00;103382.59;5295170;27;20069;-73
2024/01/31 06:29:42;;;;;;;74.93;26.55;;;;;;;7.39;100.00;103372.53;5295339;27;20072;-73
2024/01/31 06:32:20;;;;;;;81.68;25.10;;;;;;;7.33;100.00;103376.41;5299006;27;20068;-72
2024/01/31 06:34:52;;;;;;;82.53;26.90;;;;;;;7.33;100.00;103381.75;5290553;27;20110;-72
2024/01/31 06:37:22;;;;;;;72.43;25.45;;;;;;;7.36;100.00;103370.88;5294986;27;20023;-73
2024/01/31 06:39:54;;;;;;;82.72;25.85;;;;;;;7.30;100.00;103376.56;5292991;27;20037;-73
2024/01/31 06:42:24;;;;;;;81.43;25.55;;;;;;;7.27;100.00;103361.53;5290846;27;20027;-73
2024/01/31 06:44:55;;;;;;;77.95;25.85;;;;;;;7.22;100.00;103358.25;5289947;27;20028;-73
2024/01/31 06:47:25;;;;;;;69.25;23.40;;;;;;;7.15;100.00;103359.56;5286946;27;20466;-73
2024/01/31 06:49:56;;;;;;;81.75;25.38;;;;;;;7.03;100.00;103354.88;5291730;27;20023;-73
2024/01/31 06:52:26;;;;;;;80.65;26.15;;;;;;;6.96;100.00;103345.47;5293078;27;20426;-72
2024/01/31 06:54:57;;;;;;;84.40;28.45;;;;;;;7.01;100.00;103346.09;5289947;27;20028;-73
2024/01/31 06:57:28;;;;;;;87.30;28.75;;;;;;;7.11;100.00;103349.13;5284584;28;20676;-73
2024/01/31 06:59:58;;;;;;;96.25;29.52;;;;;;;7.10;100.00;103347.41;5291067;27;20098;-73
2024/01/31 07:02:29;;;;;;;88.50;29.67;;;;;;;7.08;100.00;103352.84;5290173;27;20102;-73
2024/01/31 07:04:59;;;;;;;92.38;31.35;;;;;;;7.19;100.00;103361.13;5294641;27;20027;-72
2024/01/31 07:07:30;;;;;;;110.25;32.78;;;;;;;7.25;100.00;103360.78;5289385;28;20102;-73
2024/01/31 07:10:01;;;;;;;108.72;35.80;;;;;;;7.30;100.00;103373.88;5297929;27;20029;-72
2024/01/31 07:12:32;;;;;;;103.05;36.03;;;;;;;7.26;100.00;103375.84;5295372;27;20099;-72
2024/01/31 07:15:03;;;;;;;100.65;32.67;;;;;;;7.31;100.00;103374.75;5293277;28;20019;-72
2024/01/31 07:17:34;;;;;;;107.68;32.53;;;;;;;7.39;100.00;103380.53;5293160;27;20032;-72
2024/01/31 07:20:05;;;;;;;109.03;34.42;;;;;;;7.39;100.00;103383.22;5289893;28;20118;-72
2024/01/31 07:22:35;;;;;;;107.53;33.00;;;;;;;7.36;100.00;103392.25;5284250;28;20073;-72
2024/01/31 07:25:10;;;;;;;103.47;33.10;;;;;;;7.44;100.00;103394.50;5289624;28;20027;-72
2024/01/31 07:27:42;;;;;;;103.80;35.03;;;;;;;7.53;100.00;103418.06;5284303;28;20415;-72
2024/01/31 07:30:13;;;;;;;144.63;58.80;;;;;;;7.57;100.00;103421.41;5288359;27;20031;-72
2024/01/31 07:32:43;;;;;;;98.88;32.55;;;;;;;7.51;100.00;103428.78;5294528;28;20030;-72
2024/01/31 07:35:14;;;;;;;89.57;30.58;;;;;;;7.54;100.00;103430.44;5293135;27;20023;-72
2024/01/31 07:37:45;;;;;;;100.50;32.28;;;;;;;7.59;100.00;103438.22;5288338;28;20442;-72
2024/01/31 07:40:15;;;;;;;103.95;31.30;;;;;;;7.60;100.00;103434.59;5285243;28;20110;-72
2024/01/31 07:42:46;;;;;;;89.22;30.08;;;;;;;7.58;100.00;103428.44;5285176;28;20094;-72
2024/01/31 07:45:16;;;;;;;108.70;31.45;;;;;;;7.58;100.00;103428.44;5289248;28;20365;-72
2024/01/31 07:47:47;;;;;;;94.78;30.98;;;;;;;7.53;100.00;103426.91;5298733;27;20031;-72
2024/01/31 07:50:17;;;;;;;92.93;32.03;;;;;;;7.49;100.00;103428.03;5294167;27;20485;-72
2024/01/31 07:52:48;;;;;;;108.72;34.45;;;;;;;7.48;100.00;103426.31;5292773;27;20594;-73
2024/01/31 07:55:19;;;;;;;110.30;34.67;;;;;;;7.45;100.00;103415.78;5293306;27;20401;-72
2024/01/31 07:57:49;;;;;;;98.50;29.25;;;;;;;7.37;100.00;103404.63;5292217;27;20028;-72
2024/01/31 08:00:21;;;;;;;106.75;32.83;;;;;;;7.40;100.00;103398.28;5292955;27;20023;-72
2024/01/31 08:02:52;;;;;;;96.63;30.38;;;;;;;7.43;100.00;103393.66;5288490;28;20031;-73
2024/01/31 08:05:22;;;;;;;94.72;32.13;;;;;;;7.45;100.00;103391.75;5290686;27;20542;-73
2024/01/31 08:07:53;;;;;;;93.00;30.90;;;;;;;7.46;100.00;103390.78;5294263;27;20128;-73
2024/01/31 08:10:24;;;;;;;99.97;29.50;;;;;;;7.49;100.00;103393.31;5298006;27;20026;-73
2024/01/31 08:12:54;;;;;;;97.22;30.80;;;;;;;7.45;100.00;103394.41;5299410;27;20023;-72
2024/01/31 08:15:25;;;;;;;84.57;29.73;;;;;;;7.46;100.00;103396.13;5299272;27;20026;-73
2024/01/31 08:17:55;;;;;;;93.43;32.10;;;;;;;7.50;100.00;103397.69;5294680;27;20069;-72
2024/01/31 08:20:26;;;;;;;86.82;30.05;;;;;;;7.56;100.00;103409.00;5298460;27;20480;-72
2024/01/31 08:22:56;;;;;;;87.72;30.70;;;;;;;7.55;100.00;103410.81;5296605;27;20084;-72
2024/01/31 08:25:27;;;;;;;89.47;29.98;;;;;;;7.48;100.00;103417.41;5296811;27;20023;-73
2024/01/31 08:27:57;;;;;;;79.47;29.65;;;;;;;7.47;100.00;103410.34;5296110;27;20032;-72
2024/01/31 08:30:27;;;;;;;83.78;30.73;;;;;;;7.52;100.00;103417.16;5292011;27;20388;-72
2024/01/31 08:32:59;;;;;;;80.78;29.92;;;;;;;7.45;100.00;103409.56;5294446;27;20038;-72
2024/01/31 08:35:30;;;;;;;77.75;30.73;;;;;;;7.50;100.00;103403.03;5293610;27;20028;-72
2024/01/31 08:38:00;;;;;;;88.18;30.50;;;;;;;7.50;100.00;103412.88;5290046;27;20076;-72
2024/01/31 08:40:30;;;;;;;77.75;27.98;;;;;;;7.51;100.00;103412.78;5288743;27;20019;-73
2024/01/31 08:43:01;;;;;;;75.95;28.83;;;;;;;7.50;100.00;103420.88;5296129;27;20496;-73
2024/01/31 08:45:31;;;;;;;79.68;28.38;;;;;;;7.51;100.00;103406.56;5293379;27;20031;-72
2024/01/31 08:48:02;;;;;;;83.60;29.35;;;;;;;7.51;100.00;103406.56;5292410;27;20028;-72
2024/01/31 08:50:32;;;;;;;75.80;28.45;;;;;;;7.51;100.00;103407.44;5288869;27;20397;-72
2024/01/31 08:53:03;;;;;;;73.90;28.85;;;;;;;7.49;100.00;103404.00;5290714;27;20024;-73
2024/01/31 08:55:34;;;;;;;85.07;30.77;;;;;;;7.52;100.00;103402.94;5282957;27;20031;-72
2024/01/31 08:58:04;;;;;;;74.10;28.73;;;;;;;7.53;100.00;103397.53;5297825;27;20023;-73
2024/01/31 09:00:35;;;;;;;73.10;26.92;;;;;;;7.51;100.00;103393.22;5293548;27;20019;-73
2024/01/31 09:03:06;;;;;;;82.68;29.73;;;;;;;7.58;100.00;103393.72;5291641;27;20526;-72
2024/01/31 09:05:36;;;;;;;64.15;27.88;;;;;;;7.61;100.00;103394.44;5288864;27;20484;-72
2024/01/31 09:08:07;;;;;;;69.70;27.10;;;;;;;7.67;100.00;103394.09;5299912;27;20026;-72
2024/01/31 09:10:37;;;;;;;66.93;27.38;;;;;;;7.75;100.00;103393.66;5292607;27;20477;-72
2024/01/31 09:13:08;;;;;;;74.55;28.58;;;;;;;7.75;100.00;103388.31;5298513;27;20027;-72
2024/01/31 09:15:38;;;;;;;78.65;26.67;;;;;;;7.64;100.00;103378.25;5291446;27;20031;-72
2024/01/31 09:18:09;;;;;;;68.35;27.58;;;;;;;7.64;100.00;103374.72;5291941;27;20036;-72
2024/01/31 09:20:39;;;;;;;72.97;27.88;;;;;;;7.63;100.00;103367.63;5292713;27;20042;-72
2024/01/31 09:23:10;;;;;;;72.43;26.10;;;;;;;7.66;100.00;103364.78;5295831;27;20019;-72
2024/01/31 09:25:40;;;;;;;68.63;27.30;;;;;;;7.70;100.00;103348.50;5295046;27;20020;-73
2024/01/31 09:28:11;;;;;;;68.50;26.75;;;;;;;7.81;100.00;103349.69;5293793;27;20521;-72
2024/01/31 09:30:43;;;;;;;60.55;25.55;;;;;;;7.74;100.00;103344.72;5294499;27;20024;-72
2024/01/31 09:33:14;;;;;;;55.80;24.48;;;;;;;7.74;100.00;103342.03;5297841;27;20092;-73
2024/01/31 09:35:44;;;;;;;56.67;23.60;;;;;;;7.77;100.00;103333.81;5294421;27;20353;-72
2024/01/31 09:38:15;;;;;;;50.15;21.92;;;;;;;7.79;100.00;103323.94;5296955;27;20019;-72
2024/01/31 09:40:45;;;;;;;52.35;21.45;;;;;;;7.85;100.00;103319.19;5287977;27;20023;-72
2024/01/31 09:43:16;;;;;;;35.58;15.95;;;;;;;7.74;100.00;103303.78;5294125;27;20099;-72
2024/01/31 09:45:49;;;;;;;40.92;18.55;;;;;;;7.79;100.00;103304.38;5292538;27;20513;-73
2024/01/31 09:48:20;;;;;;;38.35;16.58;;;;;;;7.80;100.00;103300.75;5297081;27;20027;-72
2024/01/31 09:50:50;;;;;;;37.17;17.02;;;;;;;7.84;100.00;103286.25;5289705;27;20100;-73
2024/01/31 09:53:22;;;;;;;30.08;14.77;;;;;;;7.87;100.00;103302.09;5290667;27;20023;-72
2024/01/31 09:55:55;;;;;;;33.28;15.10;;;;;;;7.85;100.00;103304.00;5293129;27;20027;-72
2024/01/31 09:58:26;;;;;;;31.80;13.25;;;;;;;7.94;100.00;103307.97;5291744;27;20039;-72
2024/01/31 10:01:00;;;;;;;33.10;13.60;;;;;;;8.02;100.00;103306.53;5291303;27;20035;-73
2024/01/31 10:03:31;;;;;;;27.20;13.75;;;;;;;8.14;100.00;103306.81;5290677;27;20015;-72
2024/01/31 10:06:03;;;;;;;20.20;9.35;;;;;;;8.01;100.00;103298.63;5290785;27;20061;-73
2024/01/31 10:08:35;;;;;;;20.85;9.80;;;;;;;8.12;100.00;103301.53;5286974;27;20500;-73
2024/01/31 10:11:06;;;;;;;18.58;9.02;;;;;;;8.17;100.00;103307.47;5290395;27;20034;-73
2024/01/31 10:13:36;;;;;;;15.63;8.57;;;;;;;8.24;100.00;103302.63;5287865;27;20038;-73
2024/01/31 10:16:07;;;;;;;19.67;8.23;;;;;;;8.28;100.00;103313.06;5292313;27;20023;-73
2024/01/31 10:18:38;;;;;;;14.77;7.57;;;;;;;8.17;100.00;103314.63;5285348;27;20492;-73
2024/01/31 10:21:10;;;;;;;12.48;6.10;;;;;;;8.28;100.00;103313.06;5294092;27;20052;-72
2024/01/31 10:23:41;;;;;;;9.77;5.40;;;;;;;8.23;100.00;103319.59;5284413;27;20116;-73
2024/01/31 10:26:13;;;;;;;9.13;5.22;;;;;;;8.20;100.00;103314.44;5292017;27;20365;-72
2024/01/31 10:28:45;;;;;;;16.73;7.90;;;;;;;8.20;100.00;103335.84;5293634;27;20020;-73
2024/01/31 10:31:16;;;;;;;49.85;25.92;;;;;;;8.29;100.00;103327.28;5286089;27;20027;-73
2024/01/31 10:33:48;;;;;;;9.27;5.55;;;;;;;8.23;100.00;103332.97;5288131;27;20019;-73
2024/01/31 10:36:19;;;;;;;9.60;4.10;;;;;;;8.21;100.00;103330.41;5292643;27;20026;-72
2024/01/31 10:38:50;;;;;;;8.07;3.78;;;;;;;8.18;100.00;103341.28;5291920;27;20069;-72
2024/01/31 10:41:22;;;;;;;13.90;4.22;;;;;;;8.15;100.00;103340.59;5294533;27;20480;-72
2024/01/31 10:43:54;;;;;;;7.45;4.07;;;;;;;8.32;100.00;103341.31;5286651;27;20485;-72
2024/01/31 10:46:24;;;;;;;10.32;3.90;;;;;;;8.29;100.00;103332.63;5290205;27;20495;-72
2024/01/31 10:48:55;;;;;;;10.32;3.80;;;;;;;8.30;100.00;103332.53;5292330;27;20031;-72
2024/01/31 10:51:26;;;;;;;9.40;3.70;;;;;;;8.26;100.00;103332.81;5286468;27;20393;-72
2024/01/31 10:53:57;;;;;;;10.20;4.10;;;;;;;8.34;100.00;103333.22;5287746;27;20023;-72
2024/01/31 10:56:29;;;;;;;9.13;3.65;;;;;;;8.25;100.00;103326.59;5286984;27;20051;-72
2024/01/31 10:59:00;;;;;;;8.10;3.20;;;;;;;8.27;100.00;103321.16;5287608;27;20761;-72
2024/01/31 11:01:31;;;;;;;7.53;3.38;;;;;;;8.30;100.00;103332.53;5292262;27;20016;-72
2024/01/31 11:04:02;;;;;;;7.00;3.40;;;;;;;8.29;100.00;103329.97;5292948;27;20020;-72
2024/01/31 11:06:40;;;;;;;6.82;3.67;;;;;;;8.35;100.00;103323.38;5288812;27;20038;-72
2024/01/31 11:09:20;;;;;;;9.38;3.65;;;;;;;8.32;100.00;103330.63;5289985;27;20152;-72
2024/01/31 11:12:03;;;;;;;6.07;3.70;;;;;;;8.32;100.00;103330.63;5284954;28;20181;-72
2024/01/31 11:14:34;;;;;;;8.25;4.03;;;;;;;8.39;100.00;103328.50;5288937;27;20019;-72
2024/01/31 11:17:18;;;;;;;10.00;4.50;;;;;;;8.40;100.00;103315.97;5288884;28;20056;-72
2024/01/31 11:19:56;;;;;;;10.23;4.43;;;;;;;8.42;100.00;103314.91;5287252;28;20069;-72
2024/01/31 11:22:29;;;;;;;5.60;3.35;;;;;;;8.43;100.00;103313.09;5289299;27;20098;-72
2024/01/31 11:24:59;;;;;;;9.15;3.60;;;;;;;8.48;100.00;103306.53;5284556;28;20020;-72
2024/01/31 11:27:31;;;;;;;6.25;3.67;;;;;;;8.50;100.00;103303.75;5284107;28;20750;-72